createdAt,value
2024-03-05T00:00:19.865Z,41.63
2024-03-05T00:01:23.088Z,39.60
2024-03-05T00:02:27.019Z,40.33
2024-03-05T00:03:30.572Z,40.48
2024-03-05T00:04:33.774Z,40.05
2024-03-05T00:05:37.551Z,40.50
2024-03-05T00:06:40.632Z,40.78
2024-03-05T00:07:44.382Z,40.15
2024-03-05T00:08:47.598Z,41.22
2024-03-05T00:09:50.673Z,41.67
2024-03-05T00:10:55.385Z,40.98
2024-03-05T00:11:58.646Z,39.62
2024-03-05T00:13:01.732Z,39.45
2024-03-05T00:14:05.334Z,41.88
2024-03-05T00:15:08.806Z,40.63
2024-03-05T00:16:11.894Z,40.00
2024-03-05T00:17:14.945Z,39.77
2024-03-05T00:18:18.036Z,38.78
2024-03-05T00:19:21.165Z,40.52
2024-03-05T00:20:24.273Z,39.18
2024-03-05T00:21:27.392Z,39.13
2024-03-05T00:22:30.463Z,38.77
2024-03-05T00:23:33.545Z,39.12
2024-03-05T00:24:36.616Z,39.57
2024-03-05T00:25:40.573Z,39.60
2024-03-05T00:26:43.638Z,39.82
2024-03-05T00:27:46.815Z,39.68
2024-03-05T00:28:50.842Z,39.30
2024-03-05T00:29:53.995Z,40.08
2024-03-05T00:30:57.048Z,40.03
2024-03-05T00:32:00.188Z,39.08
2024-03-05T00:33:03.338Z,38.37
2024-03-05T00:34:06.457Z,38.30
2024-03-05T00:35:13.197Z,39.22
2024-03-05T00:36:16.420Z,39.28
2024-03-05T00:37:19.509Z,40.38
2024-03-05T00:38:28.971Z,39.27
2024-03-05T00:39:36.689Z,38.65
2024-03-05T00:40:39.964Z,38.40
2024-03-05T00:41:43.068Z,37.85
2024-03-05T00:42:46.612Z,36.58
2024-03-05T00:43:49.934Z,34.92
2024-03-05T00:44:53.030Z,35.12
2024-03-05T00:45:56.338Z,35.05
2024-03-05T00:46:59.499Z,36.30
2024-03-05T00:48:03.103Z,35.72
2024-03-05T00:49:06.207Z,35.57
2024-03-05T00:50:09.769Z,35.55
2024-03-05T00:51:13.459Z,35.02
2024-03-05T00:52:16.541Z,36.97
2024-03-05T00:53:19.822Z,36.27
2024-03-05T00:54:23.462Z,35.98
2024-03-05T00:55:26.581Z,34.82
2024-03-05T00:56:30.449Z,35.85
2024-03-05T00:57:33.493Z,35.83
2024-03-05T00:58:37.239Z,36.72
2024-03-05T00:59:40.309Z,36.98
2024-03-05T01:00:44.531Z,36.97
2024-03-05T01:01:48.477Z,36.02
2024-03-05T01:02:52.348Z,37.12
2024-03-05T01:03:56.736Z,37.18
2024-03-05T01:05:00.083Z,36.88
2024-03-05T01:06:04.995Z,37.35
2024-03-05T01:07:08.278Z,36.15
2024-03-05T01:08:11.364Z,37.32
2024-03-05T01:09:19.352Z,36.60
2024-03-05T01:10:22.549Z,37.75
2024-03-05T01:11:25.662Z,37.35
2024-03-05T01:12:28.755Z,36.53
2024-03-05T01:13:31.890Z,36.65
2024-03-05T01:14:34.994Z,37.25
2024-03-05T01:15:38.059Z,37.65
2024-03-05T01:16:41.112Z,37.05
2024-03-05T01:17:44.171Z,37.75
2024-03-05T01:18:47.238Z,37.27
2024-03-05T01:19:50.339Z,36.97
2024-03-05T01:20:54.385Z,38.10
2024-03-05T01:21:59.464Z,37.90
2024-03-05T01:23:02.952Z,37.00
2024-03-05T01:24:06.604Z,37.17
2024-03-05T01:25:10.480Z,37.58
2024-03-05T01:26:13.642Z,36.95
2024-03-05T01:27:16.697Z,37.40
2024-03-05T01:28:19.837Z,36.93
2024-03-05T01:29:23.485Z,38.00
2024-03-05T01:30:26.843Z,36.63
2024-03-05T01:31:30.701Z,37.62
2024-03-05T01:32:35.677Z,37.02
2024-03-05T01:33:40.460Z,36.48
2024-03-05T01:34:44.602Z,36.70
2024-03-05T01:35:53.104Z,36.35
2024-03-05T01:36:59.043Z,37.07
2024-03-05T01:38:02.142Z,36.63
2024-03-05T01:39:05.502Z,37.48
2024-03-05T01:40:12.897Z,36.93
2024-03-05T01:41:16.273Z,36.63
2024-03-05T01:42:19.366Z,37.12
2024-03-05T01:43:22.878Z,37.32
2024-03-05T01:44:26.460Z,37.50
2024-03-05T01:45:29.512Z,38.08
2024-03-05T01:46:32.916Z,37.25
2024-03-05T01:47:37.062Z,37.40
2024-03-05T01:48:40.137Z,37.23
2024-03-05T01:49:43.201Z,37.53
2024-03-05T01:50:46.491Z,37.25
2024-03-05T01:51:49.978Z,37.47
2024-03-05T01:52:54.254Z,36.62
2024-03-05T01:53:57.343Z,35.58
2024-03-05T01:55:07.037Z,36.17
2024-03-05T01:56:10.840Z,37.87
2024-03-05T01:57:13.967Z,37.37
2024-03-05T01:58:19.231Z,36.70
2024-03-05T01:59:23.346Z,37.88
2024-03-05T02:00:27.855Z,37.22
2024-03-05T02:01:32.740Z,36.87
2024-03-05T02:02:36.098Z,37.25
2024-03-05T02:03:39.298Z,37.72
2024-03-05T02:04:44.052Z,37.92
2024-03-05T02:05:48.796Z,36.68
2024-03-05T02:06:53.838Z,36.50
2024-03-05T02:07:57.020Z,36.33
2024-03-05T02:09:02.053Z,37.25
2024-03-05T02:10:08.929Z,37.72
2024-03-05T02:11:13.513Z,37.77
2024-03-05T02:12:16.591Z,37.00
2024-03-05T02:13:19.987Z,37.28
2024-03-05T02:14:24.433Z,37.50
2024-03-05T02:15:27.715Z,37.33
2024-03-05T02:16:30.776Z,36.83
2024-03-05T02:17:33.985Z,36.68
2024-03-05T02:18:37.071Z,36.98
2024-03-05T02:19:52.193Z,37.48
2024-03-05T02:20:59.870Z,37.92
2024-03-05T02:22:04.660Z,36.77
2024-03-05T02:23:08.245Z,36.63
2024-03-05T02:24:11.317Z,35.63
2024-03-05T02:25:17.678Z,36.73
2024-03-05T02:26:25.500Z,37.47
2024-03-05T02:27:34.599Z,38.03
2024-03-05T02:28:39.873Z,37.43
2024-03-05T02:29:44.009Z,36.78
2024-03-05T02:30:47.307Z,36.25
2024-03-05T02:31:51.910Z,37.62
2024-03-05T02:32:55.011Z,35.72
2024-03-05T02:33:58.129Z,37.07
2024-03-05T02:35:02.128Z,36.73
2024-03-05T02:36:08.162Z,36.62
2024-03-05T02:37:12.947Z,37.00
2024-03-05T02:38:16.336Z,37.75
2024-03-05T02:39:20.216Z,37.47
2024-03-05T02:40:23.330Z,37.35
2024-03-05T02:41:26.408Z,37.37
2024-03-05T02:42:29.480Z,38.77
2024-03-05T02:43:32.566Z,37.22
2024-03-05T02:44:35.655Z,39.00
2024-03-05T02:45:38.782Z,37.55
2024-03-05T02:46:41.924Z,38.15
2024-03-05T02:47:45.018Z,37.73
2024-03-05T02:48:49.125Z,36.33
2024-03-05T02:49:52.278Z,35.13
2024-03-05T02:50:56.424Z,35.15
2024-03-05T02:51:59.485Z,35.70
2024-03-05T02:53:04.377Z,34.85
2024-03-05T02:54:10.258Z,36.82
2024-03-05T02:55:14.015Z,36.22
2024-03-05T02:56:17.341Z,35.50
2024-03-05T02:57:20.390Z,36.52
2024-03-05T02:58:23.452Z,36.73
2024-03-05T02:59:26.509Z,36.72
2024-03-05T03:00:29.604Z,36.42
2024-03-05T03:01:33.049Z,37.10
2024-03-05T03:02:36.517Z,36.92
2024-03-05T03:03:39.777Z,35.70
2024-03-05T03:04:42.878Z,36.20
2024-03-05T03:05:46.721Z,35.85
2024-03-05T03:06:49.776Z,36.45
2024-03-05T03:07:53.107Z,35.98
2024-03-05T03:08:57.304Z,34.52
2024-03-05T03:10:00.852Z,34.65
2024-03-05T03:11:04.085Z,34.83
2024-03-05T03:12:07.398Z,35.85
2024-03-05T03:13:10.666Z,34.75
2024-03-05T03:14:14.034Z,33.78
2024-03-05T03:15:22.113Z,34.20
2024-03-05T03:16:25.311Z,35.35
2024-03-05T03:17:29.716Z,35.78
2024-03-05T03:18:33.860Z,34.92
2024-03-05T03:19:37.691Z,35.57
2024-03-05T03:20:41.173Z,35.50
2024-03-05T03:21:45.606Z,35.73
2024-03-05T03:22:48.721Z,34.23
2024-03-05T03:23:51.811Z,34.63
2024-03-05T03:24:54.877Z,35.48
2024-03-05T03:25:59.903Z,35.03
2024-03-05T03:27:03.032Z,34.00
2024-03-05T03:28:06.203Z,34.50
2024-03-05T03:29:12.532Z,35.20
2024-03-05T03:30:19.319Z,36.42
2024-03-05T03:31:26.885Z,35.70
2024-03-05T03:32:30.921Z,34.67
2024-03-05T03:33:33.976Z,34.35
2024-03-05T03:34:39.493Z,34.83
2024-03-05T03:35:42.646Z,35.78
2024-03-05T03:36:45.756Z,35.55
2024-03-05T03:37:49.662Z,34.88
2024-03-05T03:38:53.159Z,34.30
2024-03-05T03:39:56.222Z,35.98
2024-03-05T03:40:59.396Z,35.03
2024-03-05T03:42:02.503Z,34.58
2024-03-05T03:43:05.555Z,35.73
2024-03-05T03:44:09.111Z,33.03
2024-03-05T03:45:16.510Z,34.33
2024-03-05T03:46:19.728Z,35.03
2024-03-05T03:47:23.226Z,35.12
2024-03-05T03:48:26.302Z,34.25
2024-03-05T03:49:29.413Z,35.35
2024-03-05T03:50:32.495Z,35.13
2024-03-05T03:51:35.541Z,34.73
2024-03-05T03:52:41.316Z,35.70
2024-03-05T03:53:45.214Z,35.52
2024-03-05T03:54:49.376Z,36.37
2024-03-05T03:55:53.092Z,34.50
2024-03-05T03:56:56.337Z,36.18
2024-03-05T03:57:59.376Z,36.00
2024-03-05T03:59:02.522Z,36.60
2024-03-05T04:00:09.178Z,36.67
2024-03-05T04:01:12.496Z,36.40
2024-03-05T04:02:16.353Z,37.18
2024-03-05T04:03:21.162Z,36.15
2024-03-05T04:04:25.144Z,36.33
2024-03-05T04:05:28.228Z,36.97
2024-03-05T04:06:34.527Z,36.17
2024-03-05T04:07:38.182Z,36.90
2024-03-05T04:08:41.271Z,36.75
2024-03-05T04:09:44.334Z,36.00
2024-03-05T04:10:47.445Z,35.53
2024-03-05T04:11:50.614Z,36.23
2024-03-05T04:12:53.805Z,35.38
2024-03-05T04:13:56.892Z,36.08
2024-03-05T04:15:00.009Z,35.93
2024-03-05T04:16:05.645Z,36.80
2024-03-05T04:17:08.702Z,36.53
2024-03-05T04:18:11.803Z,35.85
2024-03-05T04:19:14.906Z,36.02
2024-03-05T04:20:18.227Z,36.88
2024-03-05T04:21:21.741Z,36.02
2024-03-05T04:22:25.202Z,36.47
2024-03-05T04:23:30.982Z,35.85
2024-03-05T04:24:37.236Z,34.65
2024-03-05T04:25:42.963Z,35.93
2024-03-05T04:26:49.663Z,36.23
2024-03-05T04:27:52.879Z,35.25
2024-03-05T04:29:02.015Z,35.27
2024-03-05T04:30:11.786Z,35.00
2024-03-05T04:31:16.172Z,35.28
2024-03-05T04:32:19.273Z,36.10
2024-03-05T04:33:22.420Z,36.40
2024-03-05T04:34:25.554Z,36.13
2024-03-05T04:35:30.099Z,36.53
2024-03-05T04:36:35.079Z,36.93
2024-03-05T04:37:38.156Z,37.32
2024-03-05T04:38:42.730Z,37.68
2024-03-05T04:39:47.572Z,38.08
2024-03-05T04:40:51.987Z,38.42
2024-03-05T04:41:55.482Z,38.42
2024-03-05T04:42:58.577Z,38.45
2024-03-05T04:44:01.806Z,38.58
2024-03-05T04:45:05.072Z,38.80
2024-03-05T04:46:09.601Z,40.68
2024-03-05T04:47:12.684Z,41.10
2024-03-05T04:48:15.749Z,39.45
2024-03-05T04:49:18.870Z,38.95
2024-03-05T04:50:22.714Z,39.07
2024-03-05T04:51:25.772Z,38.10
2024-03-05T04:52:31.545Z,37.93
2024-03-05T04:53:39.608Z,38.28
2024-03-05T04:54:42.666Z,37.00
2024-03-05T04:55:45.856Z,37.92
2024-03-05T04:56:49.287Z,38.13
2024-03-05T04:57:52.759Z,38.42
2024-03-05T04:58:56.030Z,37.57
2024-03-05T04:59:59.287Z,37.28
2024-03-05T05:01:02.465Z,36.77
2024-03-05T05:02:07.326Z,37.48
2024-03-05T05:03:10.463Z,38.07
2024-03-05T05:04:13.505Z,37.23
2024-03-05T05:05:17.037Z,37.38
2024-03-05T05:06:20.149Z,37.13
2024-03-05T05:07:25.071Z,37.15
2024-03-05T05:08:28.278Z,38.40
2024-03-05T05:09:31.339Z,38.77
2024-03-05T05:10:35.353Z,38.32
2024-03-05T05:11:38.511Z,38.22
2024-03-05T05:12:41.824Z,38.30
2024-03-05T05:13:45.964Z,37.62
2024-03-05T05:14:49.192Z,37.62
2024-03-05T05:15:52.245Z,36.70
2024-03-05T05:16:58.092Z,35.62
2024-03-05T05:18:01.826Z,37.40
2024-03-05T05:19:06.317Z,36.93
2024-03-05T05:20:10.477Z,36.42
2024-03-05T05:21:13.743Z,36.65
2024-03-05T05:22:16.876Z,36.00
2024-03-05T05:23:19.940Z,35.83
2024-03-05T05:24:23.012Z,36.13
2024-03-05T05:25:26.331Z,37.00
2024-03-05T05:26:29.413Z,38.03
2024-03-05T05:27:33.182Z,37.75
2024-03-05T05:28:36.323Z,35.95
2024-03-05T05:29:42.396Z,37.80
2024-03-05T05:30:45.921Z,36.43
2024-03-05T05:31:49.021Z,37.35
2024-03-05T05:32:52.262Z,38.95
2024-03-05T05:33:57.491Z,37.30
2024-03-05T05:35:00.580Z,38.05
2024-03-05T05:36:03.812Z,39.18
2024-03-05T05:37:06.875Z,39.22
2024-03-05T05:38:12.730Z,39.62
2024-03-05T05:39:16.198Z,38.90
2024-03-05T05:40:21.432Z,38.47
2024-03-05T05:41:25.796Z,38.87
2024-03-05T05:42:28.841Z,38.08
2024-03-05T05:43:31.918Z,38.75
2024-03-05T05:44:34.997Z,38.73
2024-03-05T05:45:38.942Z,39.33
2024-03-05T05:46:42.091Z,38.92
2024-03-05T05:47:53.309Z,40.70
2024-03-05T05:48:57.217Z,41.78
2024-03-05T05:50:00.455Z,48.53
2024-03-05T05:51:11.442Z,44.12
2024-03-05T05:52:14.815Z,41.92
2024-03-05T05:53:19.353Z,41.58
2024-03-05T05:54:23.281Z,39.90
2024-03-05T05:55:27.270Z,39.58
2024-03-05T05:56:31.103Z,39.30
2024-03-05T05:57:34.152Z,39.55
2024-03-05T05:58:37.494Z,38.35
2024-03-05T05:59:42.779Z,38.57
2024-03-05T06:00:45.886Z,39.23
2024-03-05T06:01:49.041Z,39.48
2024-03-05T06:02:56.052Z,40.32
2024-03-05T06:03:59.917Z,40.65
2024-03-05T06:05:03.985Z,39.18
2024-03-05T06:06:09.022Z,39.15
2024-03-05T06:07:12.947Z,39.02
2024-03-05T06:08:16.280Z,213.12
2024-03-05T06:09:28.551Z,67.58
2024-03-05T06:10:31.962Z,42.92
2024-03-05T06:11:38.710Z,39.80
2024-03-05T06:12:41.990Z,39.85
2024-03-05T06:13:46.453Z,40.13
2024-03-05T06:14:49.577Z,40.32
2024-03-05T06:15:52.713Z,40.63
2024-03-05T06:16:55.848Z,40.72
2024-03-05T06:18:01.076Z,39.78
2024-03-05T06:19:04.385Z,40.08
2024-03-05T06:20:11.835Z,39.17
2024-03-05T06:21:14.920Z,40.15
2024-03-05T06:22:23.236Z,40.25
2024-03-05T06:23:30.756Z,39.50
2024-03-05T06:24:33.795Z,40.30
2024-03-05T06:25:36.894Z,39.28
2024-03-05T06:26:40.744Z,39.87
2024-03-05T06:27:43.840Z,39.32
2024-03-05T06:28:47.126Z,38.48
2024-03-05T06:29:51.100Z,39.75
2024-03-05T06:30:54.802Z,39.08
2024-03-05T06:31:57.868Z,38.53
2024-03-05T06:33:01.072Z,38.68
2024-03-05T06:34:07.243Z,37.85
2024-03-05T06:35:12.313Z,38.42
2024-03-05T06:36:15.428Z,37.60
2024-03-05T06:37:18.593Z,38.05
2024-03-05T06:38:21.685Z,38.58
2024-03-05T06:39:30.568Z,39.07
2024-03-05T06:40:34.404Z,38.58
2024-03-05T06:41:38.681Z,39.98
2024-03-05T06:42:43.149Z,40.43
2024-03-05T06:43:46.296Z,38.57
2024-03-05T06:44:52.593Z,38.98
2024-03-05T06:45:57.538Z,40.10
2024-03-05T06:47:00.685Z,39.43
2024-03-05T06:48:16.156Z,39.72
2024-03-05T06:49:28.564Z,40.42
2024-03-05T06:50:44.224Z,39.13
2024-03-05T06:51:54.619Z,38.97
2024-03-05T06:53:16.258Z,39.48
2024-03-05T06:54:37.891Z,40.65
2024-03-05T06:55:59.421Z,42.05
2024-03-05T06:57:03.426Z,41.37
2024-03-05T06:58:06.598Z,42.23
2024-03-05T06:59:11.694Z,43.30
2024-03-05T07:00:18.749Z,43.37
2024-03-05T07:01:22.228Z,43.87
2024-03-05T07:02:28.380Z,46.78
2024-03-05T07:03:31.530Z,57.85
2024-03-05T07:04:34.636Z,53.73
2024-03-05T07:05:37.708Z,53.73
2024-03-05T07:06:40.965Z,53.58
2024-03-05T07:07:44.101Z,50.73
2024-03-05T07:08:52.877Z,53.48
2024-03-05T07:09:56.001Z,53.80
2024-03-05T07:10:59.115Z,53.35
2024-03-05T07:12:02.469Z,51.98
2024-03-05T07:13:05.568Z,51.23
2024-03-05T07:14:11.363Z,48.35
2024-03-05T07:15:15.964Z,47.73
2024-03-05T07:16:20.957Z,45.10
2024-03-05T07:17:24.155Z,45.25
2024-03-05T07:18:27.207Z,44.43
2024-03-05T07:19:31.608Z,43.80
2024-03-05T07:20:35.830Z,45.50
2024-03-05T07:21:38.985Z,45.38
2024-03-05T07:22:42.277Z,45.20
2024-03-05T07:23:47.461Z,46.28
2024-03-05T07:24:53.436Z,45.65
2024-03-05T07:25:57.487Z,42.95
2024-03-05T07:27:07.915Z,42.57
2024-03-05T07:28:12.071Z,44.48
2024-03-05T07:29:15.151Z,44.37
2024-03-05T07:30:19.841Z,45.63
2024-03-05T07:31:25.364Z,45.02
2024-03-05T07:32:28.614Z,43.47
2024-03-05T07:33:34.360Z,43.23
2024-03-05T07:34:37.828Z,43.90
2024-03-05T07:35:43.732Z,44.23
2024-03-05T07:36:46.805Z,43.35
2024-03-05T07:37:50.145Z,43.28
2024-03-05T07:38:54.199Z,42.07
2024-03-05T07:39:57.420Z,39.87
2024-03-05T07:41:01.565Z,38.82
2024-03-05T07:42:05.650Z,38.15
2024-03-05T07:43:09.940Z,38.50
2024-03-05T07:44:13.059Z,37.77
2024-03-05T07:45:17.367Z,37.32
2024-03-05T07:46:20.670Z,38.63
2024-03-05T07:47:23.858Z,38.32
2024-03-05T07:48:26.919Z,37.50
2024-03-05T07:49:30.063Z,36.40
2024-03-05T07:50:33.280Z,35.88
2024-03-05T07:51:41.872Z,37.17
2024-03-05T07:52:51.839Z,38.40
2024-03-05T07:53:55.056Z,37.80
2024-03-05T07:54:58.943Z,37.62
2024-03-05T07:56:02.168Z,36.53
2024-03-05T07:57:05.348Z,37.47
2024-03-05T07:58:08.640Z,38.55
2024-03-05T07:59:11.866Z,38.82
2024-03-05T08:00:15.342Z,38.20
2024-03-05T08:01:18.457Z,37.50
2024-03-05T08:02:22.376Z,37.28
2024-03-05T08:03:25.493Z,37.13
2024-03-05T08:04:29.759Z,38.07
2024-03-05T08:05:32.843Z,37.32
2024-03-05T08:06:36.003Z,37.25
2024-03-05T08:07:40.960Z,36.70
2024-03-05T08:08:44.057Z,36.43
2024-03-05T08:09:47.126Z,35.67
2024-03-05T08:10:50.472Z,36.98
2024-03-05T08:11:53.667Z,37.20
2024-03-05T08:12:57.764Z,35.42
2024-03-05T08:14:00.951Z,36.25
2024-03-05T08:15:08.272Z,34.25
2024-03-05T08:16:11.671Z,33.50
2024-03-05T08:17:14.722Z,33.40
2024-03-05T08:18:17.853Z,33.27
2024-03-05T08:19:21.199Z,32.62
2024-03-05T08:20:27.035Z,31.63
2024-03-05T08:21:30.217Z,32.45
2024-03-05T08:22:33.336Z,32.07
2024-03-05T08:23:36.843Z,31.95
2024-03-05T08:24:40.025Z,32.28
2024-03-05T08:25:46.093Z,31.40
2024-03-05T08:26:50.773Z,33.47
2024-03-05T08:27:59.619Z,33.95
2024-03-05T08:29:02.969Z,32.38
2024-03-05T08:30:12.479Z,32.35
2024-03-05T08:31:16.131Z,33.20
2024-03-05T08:32:19.212Z,32.35
2024-03-05T08:33:25.067Z,31.72
2024-03-05T08:34:28.536Z,31.27
2024-03-05T08:35:32.530Z,29.68
2024-03-05T08:36:38.429Z,29.80
2024-03-05T08:37:47.638Z,28.23
2024-03-05T08:38:51.071Z,27.67
2024-03-05T08:39:54.137Z,27.20
2024-03-05T08:40:57.239Z,26.88
2024-03-05T08:42:00.318Z,28.75
2024-03-05T08:43:05.321Z,26.22
2024-03-05T08:44:08.817Z,25.43
2024-03-05T08:45:13.826Z,28.82
2024-03-05T08:46:17.058Z,26.45
2024-03-05T08:47:20.273Z,26.55
2024-03-05T08:48:23.339Z,26.28
2024-03-05T08:49:26.868Z,24.43
2024-03-05T08:50:31.108Z,25.02
2024-03-05T08:51:39.433Z,25.38
2024-03-05T08:52:43.109Z,24.82
2024-03-05T08:53:46.279Z,26.68
2024-03-05T08:54:49.342Z,26.10
2024-03-05T08:55:55.165Z,26.72
2024-03-05T08:57:01.185Z,25.50
2024-03-05T08:58:05.152Z,25.30
2024-03-05T08:59:08.488Z,25.73
2024-03-05T09:00:27.076Z,24.97
2024-03-05T09:01:40.372Z,26.90
2024-03-05T09:02:46.539Z,27.00
2024-03-05T09:03:50.646Z,25.03
2024-03-05T09:04:53.851Z,25.05
2024-03-05T09:05:56.944Z,24.78
2024-03-05T09:06:59.999Z,25.78
2024-03-05T09:08:03.358Z,25.45
2024-03-05T09:09:07.025Z,24.62
2024-03-05T09:10:11.599Z,24.97
2024-03-05T09:11:14.888Z,25.27
2024-03-05T09:12:18.647Z,24.08
2024-03-05T09:13:21.765Z,25.23
2024-03-05T09:14:26.266Z,24.58
2024-03-05T09:15:29.351Z,24.80
2024-03-05T09:16:32.902Z,25.62
2024-03-05T09:17:35.987Z,25.20
2024-03-05T09:18:39.117Z,25.18
2024-03-05T09:19:45.610Z,24.95
2024-03-05T09:20:48.751Z,24.35
2024-03-05T09:21:51.812Z,24.27
2024-03-05T09:22:54.915Z,24.82
2024-03-05T09:23:58.026Z,24.48
2024-03-05T09:25:01.066Z,23.72
2024-03-05T09:26:05.247Z,23.82
2024-03-05T09:27:08.370Z,24.23
2024-03-05T09:28:12.023Z,25.30
2024-03-05T09:29:16.526Z,25.95
2024-03-05T09:30:20.923Z,25.03
2024-03-05T09:31:24.050Z,24.67
2024-03-05T09:32:27.188Z,25.28
2024-03-05T09:33:33.122Z,25.93
2024-03-05T09:34:36.182Z,24.70
2024-03-05T09:35:40.178Z,24.07
2024-03-05T09:36:43.223Z,25.67
2024-03-05T09:37:47.075Z,24.93
2024-03-05T09:38:50.837Z,25.15
2024-03-05T09:39:55.146Z,24.42
2024-03-05T09:40:58.443Z,24.95
2024-03-05T09:42:01.560Z,25.18
2024-03-05T09:43:06.040Z,24.38
2024-03-05T09:44:10.393Z,24.22
2024-03-05T09:45:17.927Z,25.52
2024-03-05T09:46:22.309Z,24.58
2024-03-05T09:47:26.127Z,23.53
2024-03-05T09:48:30.019Z,23.67
2024-03-05T09:49:33.481Z,23.07
2024-03-05T09:50:38.386Z,22.92
2024-03-05T09:51:42.529Z,25.33
2024-03-05T09:52:48.517Z,25.08
2024-03-05T09:53:54.213Z,24.15
2024-03-05T09:54:57.299Z,23.25
2024-03-05T09:56:00.544Z,23.87
2024-03-05T09:57:06.472Z,23.25
2024-03-05T09:58:13.065Z,22.83
2024-03-05T09:59:17.813Z,23.27
2024-03-05T10:00:22.403Z,22.60
2024-03-05T10:01:25.841Z,22.55
2024-03-05T10:02:30.152Z,22.07
2024-03-05T10:03:35.582Z,22.03
2024-03-05T10:04:43.261Z,22.20
2024-03-05T10:05:46.306Z,23.15
2024-03-05T10:06:50.657Z,22.65
2024-03-05T10:07:53.816Z,21.97
2024-03-05T10:08:56.916Z,23.03
2024-03-05T10:10:05.251Z,24.52
2024-03-05T10:11:08.462Z,21.47
2024-03-05T10:12:14.065Z,22.02
2024-03-05T10:13:18.600Z,22.97
2024-03-05T10:14:25.464Z,22.23
2024-03-05T10:15:28.746Z,20.62
2024-03-05T10:16:31.870Z,21.35
2024-03-05T10:17:51.202Z,20.93
2024-03-05T10:18:54.539Z,21.10
2024-03-05T10:19:57.740Z,21.05
2024-03-05T10:21:21.825Z,20.18
2024-03-05T10:22:24.978Z,20.23
2024-03-05T10:23:29.328Z,20.58
2024-03-05T10:24:32.898Z,20.88
2024-03-05T10:25:37.382Z,20.70
2024-03-05T10:26:42.354Z,21.12
2024-03-05T10:27:55.414Z,20.23
2024-03-05T10:29:01.868Z,20.40
2024-03-05T10:30:05.865Z,20.45
2024-03-05T10:31:08.936Z,20.33
2024-03-05T10:32:17.759Z,21.57
2024-03-05T10:33:24.251Z,19.95
2024-03-05T10:34:27.640Z,20.80
2024-03-05T10:35:32.947Z,20.55
2024-03-05T10:36:44.208Z,21.05
2024-03-05T10:38:17.854Z,19.90
2024-03-05T10:39:21.429Z,20.60
2024-03-05T10:40:26.239Z,19.87
2024-03-05T10:41:43.491Z,20.20
2024-03-05T10:42:54.470Z,18.68
2024-03-05T10:44:01.866Z,20.28
2024-03-05T10:45:08.170Z,19.35
2024-03-05T10:46:11.530Z,19.18
2024-03-05T10:47:15.377Z,18.75
2024-03-05T10:48:21.964Z,19.03
2024-03-05T10:49:25.639Z,19.00
2024-03-05T10:50:29.938Z,19.15
2024-03-05T10:51:39.913Z,19.03
2024-03-05T10:52:45.080Z,18.95
2024-03-05T10:53:51.854Z,18.08
2024-03-05T10:54:58.165Z,18.38
2024-03-05T10:56:01.817Z,18.20
2024-03-05T10:57:07.100Z,18.35
2024-03-05T10:58:14.928Z,18.72
2024-03-05T10:59:34.991Z,18.53
2024-03-05T11:00:42.850Z,18.10
2024-03-05T11:01:47.048Z,19.10
2024-03-05T11:02:50.936Z,17.80
2024-03-05T11:03:56.514Z,18.85
2024-03-05T11:05:02.822Z,18.17
2024-03-05T11:06:07.574Z,17.10
2024-03-05T11:07:12.405Z,16.93
2024-03-05T11:08:20.393Z,18.50
2024-03-05T11:09:25.334Z,18.85
2024-03-05T11:10:30.880Z,19.57
2024-03-05T11:11:34.646Z,18.02
2024-03-05T11:12:37.785Z,19.12
2024-03-05T11:13:42.513Z,18.18
2024-03-05T11:14:47.699Z,17.77
2024-03-05T11:15:52.065Z,17.97
2024-03-05T11:17:05.147Z,18.40
2024-03-05T11:18:45.891Z,17.72
2024-03-05T11:19:49.487Z,16.63
2024-03-05T11:20:54.977Z,18.25
2024-03-05T11:22:00.070Z,20.28
2024-03-05T11:23:06.423Z,17.35
2024-03-05T11:24:09.584Z,18.35
2024-03-05T11:25:34.480Z,18.93
2024-03-05T11:26:41.010Z,18.35
2024-03-05T11:27:49.418Z,17.67
2024-03-05T11:29:02.365Z,17.38
2024-03-05T11:30:18.238Z,16.53
2024-03-05T11:31:22.427Z,16.83
2024-03-05T11:32:29.872Z,16.17
2024-03-05T11:33:33.030Z,16.20
2024-03-05T11:34:36.866Z,16.53
2024-03-05T11:35:45.668Z,17.18
2024-03-05T11:37:12.178Z,16.17
2024-03-05T11:38:20.259Z,17.72
2024-03-05T11:39:29.253Z,16.47
2024-03-05T11:40:34.538Z,16.58
2024-03-05T11:41:42.733Z,16.33
2024-03-05T11:42:49.486Z,15.97
2024-03-05T11:43:53.581Z,16.35
2024-03-05T11:44:56.707Z,15.70
2024-03-05T11:45:59.760Z,16.72
2024-03-05T11:47:04.534Z,17.08
2024-03-05T11:48:12.243Z,16.07
2024-03-05T11:49:17.825Z,16.20
2024-03-05T11:50:21.655Z,17.05
2024-03-05T11:51:24.727Z,16.40
2024-03-05T11:52:29.288Z,16.25
2024-03-05T11:53:37.334Z,15.62
2024-03-05T11:54:40.428Z,16.97
2024-03-05T11:55:43.970Z,16.82
2024-03-05T11:56:59.605Z,16.82
2024-03-05T11:58:03.694Z,15.73
2024-03-05T11:59:06.929Z,15.50
2024-03-05T12:00:18.038Z,16.40
2024-03-05T12:01:24.523Z,16.12
2024-03-05T12:02:28.875Z,15.78
2024-03-05T12:03:32.177Z,15.58
2024-03-05T12:04:35.884Z,15.92
2024-03-05T12:05:44.749Z,15.73
2024-03-05T12:06:47.989Z,15.80
2024-03-05T12:08:08.207Z,14.87
2024-03-05T12:09:20.173Z,15.52
2024-03-05T12:10:27.426Z,14.47
2024-03-05T12:11:30.890Z,14.18
2024-03-05T12:12:34.048Z,14.05
2024-03-05T12:13:37.135Z,15.22
2024-03-05T12:14:54.636Z,14.72
2024-03-05T12:16:11.347Z,14.08
2024-03-05T12:17:15.331Z,14.05
2024-03-05T12:18:18.638Z,13.57
2024-03-05T12:19:21.758Z,13.27
2024-03-05T12:20:25.509Z,12.27
2024-03-05T12:21:33.612Z,12.77
2024-03-05T12:22:38.822Z,13.33
2024-03-05T12:23:43.471Z,14.10
2024-03-05T12:24:48.074Z,13.47
2024-03-05T12:25:52.701Z,13.75
2024-03-05T12:27:00.219Z,13.62
2024-03-05T12:28:03.549Z,13.28
2024-03-05T12:29:08.192Z,13.18
2024-03-05T12:30:12.034Z,13.25
2024-03-05T12:31:15.117Z,12.72
2024-03-05T12:32:20.351Z,13.48
2024-03-05T12:33:24.230Z,13.45
2024-03-05T12:34:28.567Z,13.20
2024-03-05T12:35:32.211Z,13.70
2024-03-05T12:36:35.356Z,13.62
2024-03-05T12:37:40.902Z,12.97
2024-03-05T12:38:44.234Z,12.97
2024-03-05T12:39:47.298Z,13.63
2024-03-05T12:41:00.649Z,14.90
2024-03-05T12:42:07.060Z,15.25
2024-03-05T12:43:11.598Z,14.83
2024-03-05T12:44:24.405Z,15.02
2024-03-05T12:45:27.726Z,14.52
2024-03-05T12:46:33.239Z,13.77
2024-03-05T12:47:36.639Z,13.83
2024-03-05T12:48:42.215Z,14.17
2024-03-05T12:49:47.739Z,13.83
2024-03-05T12:50:51.564Z,13.98
2024-03-05T12:51:54.652Z,15.10
2024-03-05T12:53:07.198Z,15.13
2024-03-05T12:54:12.784Z,14.57
2024-03-05T12:55:16.452Z,13.68
2024-03-05T12:56:19.507Z,15.08
2024-03-05T12:57:34.108Z,14.22
2024-03-05T12:58:42.176Z,14.88
2024-03-05T12:59:46.308Z,14.67
2024-03-05T13:00:49.379Z,14.80
2024-03-05T13:01:55.260Z,15.32
2024-03-05T13:02:58.924Z,14.50
2024-03-05T13:04:02.046Z,14.50
2024-03-05T13:05:05.860Z,13.97
2024-03-05T13:06:09.713Z,14.92
2024-03-05T13:07:12.913Z,14.78
2024-03-05T13:08:16.030Z,14.93
2024-03-05T13:09:22.407Z,15.38
2024-03-05T13:10:25.678Z,15.72
2024-03-05T13:11:29.076Z,16.50
2024-03-05T13:12:32.579Z,15.75
2024-03-05T13:13:35.751Z,15.57
2024-03-05T13:14:38.821Z,16.70
2024-03-05T13:15:41.881Z,16.42
2024-03-05T13:16:46.279Z,15.62
2024-03-05T13:17:51.990Z,15.57
2024-03-05T13:18:55.116Z,15.93
2024-03-05T13:19:58.270Z,25.15
2024-03-05T13:21:01.336Z,19.02
2024-03-05T13:22:04.747Z,17.10
2024-03-05T13:23:08.930Z,17.13
2024-03-05T13:24:12.360Z,16.40
2024-03-05T13:25:16.794Z,17.75
2024-03-05T13:26:20.119Z,17.60
2024-03-05T13:27:24.942Z,16.62
2024-03-05T13:28:28.148Z,17.90
2024-03-05T13:29:31.301Z,17.72
2024-03-05T13:30:34.358Z,18.15
2024-03-05T13:31:38.698Z,18.95
2024-03-05T13:32:42.006Z,18.87
2024-03-05T13:33:45.074Z,18.15
2024-03-05T13:34:50.222Z,18.83
2024-03-05T13:35:53.276Z,20.12
2024-03-05T13:36:56.336Z,19.40
2024-03-05T13:37:59.580Z,18.73
2024-03-05T13:39:10.338Z,19.80
2024-03-05T13:40:14.293Z,20.42
2024-03-05T13:41:17.417Z,19.88
2024-03-05T13:42:20.582Z,20.58
2024-03-05T13:43:27.680Z,20.25
2024-03-05T13:44:30.765Z,21.03
2024-03-05T13:45:33.830Z,20.58
2024-03-05T13:46:39.572Z,20.97
2024-03-05T13:47:44.256Z,20.88
2024-03-05T13:48:47.718Z,20.03
2024-03-05T13:49:50.854Z,18.85
2024-03-05T13:50:54.104Z,18.90
2024-03-05T13:51:57.790Z,19.12
2024-03-05T13:53:00.903Z,20.48
2024-03-05T13:54:05.123Z,20.00